Station LORO1 - Lorain Harbor, OH Image indicating link to RSS feed of recent meteorological observations for station LORO1


Conditions at LORO1 as of
(2:30 am EDT)
0630 GMT on 04/14/2024:
     

Click on the graph icon in the table below to see a time series plot of the last five days of that observation.

5-day plot - Wind Direction Wind Direction (WDIR): S ( 190 deg true )
5-day plot - Wind Speed Wind Speed (WSPD): 6 kts
5-day plot - Wind Gust Wind Gust (GST): 9 kts
5-day plot - Air Temperature Air Temperature (ATMP): 54.3 °F
5-day plot - Wind Speed at 10 Meters Wind Speed at 10 meters (WSPD10M): 8 kts
5-day plot - Wind Speed at 20 Meters Wind Speed at 20 meters (WSPD20M): 8 kts
5-day plot -  Wind Speed, Wind Gust and Atmospheric Pressure Combined plot of Wind Speed, Gust, and Air Pressure
Previous observations
TIME
(EDT)
5-day plot - Wind Direction
WDIR
 
5-day plot - Wind Speed
WSPD
kts
5-day plot - Wind Gust
GST
kts
5-day plot - Wave Height
WVHT
ft
5-day plot - Dominant Wave Period
DPD
sec
5-day plot - Average Wave Period
APD
sec
5-day plot - Mean Wave Direction
MWD
 
5-day plot - Atmospheric Pressure
PRES
in
5-day plot - Pressure Tendency
PTDY
in
5-day plot - Air Temperature
ATMP
°F
5-day plot - Water Temperature
WTMP
°F
5-day plot - Dew Point
DEWP
°F
5-day plot - Salinity
SAL
psu
5-day plot - Visibility
VIS
nmi
5-day plot - Tide (above MLLW)
TIDE
ft
2024-04-14 02:20 amSSW 8 9------ 55.0-----
2024-04-14 02:10 amSSW 8 10------ 55.6-----
2024-04-14 02:00 amSSW 8 10------ 55.4-----
2024-04-14 01:50 amSSW 8 11------ 55.0-----
2024-04-14 01:40 amSSW 9 11------ 55.2-----
2024-04-14 01:30 amSSW 8 9------ 55.4-----
2024-04-14 01:20 amSSW 8 9------ 55.6-----
2024-04-14 01:10 amSSW 8 8------ 55.4-----
2024-04-14 01:00 am SW 6 7------ 55.0-----
2024-04-14 12:50 amSSW 6 7------ 54.7-----
2024-04-14 12:40 amSSW 6 7------ 54.3-----
2024-04-14 12:30 amSSW 6 7------ 54.7-----
2024-04-14 12:20 am SW 6 7------ 55.0-----
2024-04-14 12:10 am SW 6 7------ 55.0-----
2024-04-14 12:00 am SW 6 8------ 55.0-----
2024-04-13 11:50 pm SW 7 8------ 55.0-----
2024-04-13 11:40 pm SW 7 8------ 55.8-----
2024-04-13 11:30 pm SW 7 8------ 55.9-----
2024-04-13 11:20 pm SW 7 8------ 56.3-----
2024-04-13 11:10 pm SW 8 9------ 56.7-----
2024-04-13 11:00 pmWSW 9 11------ 57.2-----
2024-04-13 10:50 pmWSW 10 11------ 57.9-----
2024-04-13 10:40 pmWSW 9 10------ 57.0-----
2024-04-13 10:30 pm SW 10 10------ 57.4-----
2024-04-13 10:20 pmWSW 9 10------ 58.1-----
2024-04-13 10:10 pmWSW 9 10------ 57.7-----
2024-04-13 10:00 pmWSW 8 9------ 58.1-----
2024-04-13 09:50 pmWSW 8 9------ 57.7-----
2024-04-13 09:40 pmWSW 9 11------ 58.1-----
2024-04-13 09:30 pmWSW 10 10------ 57.9-----
2024-04-13 09:20 pmWSW 9 11------ 58.5-----
2024-04-13 09:10 pmWSW 10 10------ 58.3-----
2024-04-13 09:00 pmWSW 10 11------ 58.5-----
2024-04-13 08:50 pmWSW 10 10------ 57.0-----
2024-04-13 08:40 pmWSW 9 10------ 56.7-----
2024-04-13 08:30 pmWSW 9 10------ 56.3-----
2024-04-13 08:20 pm W 9 11------ 54.5-----
2024-04-13 08:10 pm W 10 11------ 55.0-----
2024-04-13 08:00 pm W 10 11------ 55.6-----
2024-04-13 07:50 pm W 11 12------ 55.6-----
2024-04-13 07:40 pm W 12 13------ 55.6-----
2024-04-13 07:30 pm W 10 11------ 54.9-----
2024-04-13 07:20 pm W 10 11------ 55.4-----
2024-04-13 07:10 pm W 9 9------ 55.0-----
2024-04-13 07:00 pm W 7 7------ 54.5-----
2024-04-13 06:50 pm W 6 8------ 54.7-----
2024-04-13 06:40 pm W 6 7------ 54.0-----
2024-04-13 06:30 pm W 8 8------ 55.6-----
2024-04-13 06:20 pm W 8 9------ 55.6-----
2024-04-13 06:10 pm W 6 8------ 55.0-----
2024-04-13 06:00 pm W 6 7------ 56.3-----
2024-04-13 05:50 pm W 5 6------ 55.6-----
2024-04-13 05:40 pm W 4 5------ 55.8-----
2024-04-13 05:30 pmWSW 5 6------ 54.0-----
2024-04-13 05:20 pmWSW 6 6------ 53.1-----
2024-04-13 05:10 pmWSW 5 8------ 52.2-----
2024-04-13 05:00 pm W 7 9------ 54.5-----
2024-04-13 04:50 pm W 8 9------ 54.1-----
2024-04-13 04:40 pm W 5 6------ 52.5-----
2024-04-13 04:30 pmWNW 5 5------ 51.4-----
2024-04-13 04:20 pm W 3 3------ 51.8-----
2024-04-13 04:10 pm W 4 8------ 51.4-----
2024-04-13 04:00 pm NW 7 8------ 52.0-----
2024-04-13 03:50 pm NW 8 8------ 51.6-----
2024-04-13 03:40 pm NW 7 8------ 51.1-----
2024-04-13 03:30 pmWNW 7 8------ 50.4-----
2024-04-13 03:20 pmWNW 8 9------ 50.5-----
2024-04-13 03:10 pmWNW 8 8------ 49.6-----
2024-04-13 03:00 pmWNW 6 7------ 48.9-----
2024-04-13 02:50 pmWNW 6 8------ 49.1-----
2024-04-13 02:40 pmWNW 7 8------ 48.7-----
2024-04-13 02:30 pmWNW 7 8------ 48.6-----
2024-04-13 02:20 pmWNW 8 9------ 48.7-----
2024-04-13 02:10 pm W 8 10------ 48.7-----
2024-04-13 02:00 pm W 8 9------ 48.7-----
2024-04-13 01:50 pm W 8 9------ 48.2-----
2024-04-13 01:40 pm W 8 10------ 48.4-----
2024-04-13 01:30 pm W 9 11------ 48.4-----
2024-04-13 01:20 pmWNW 11 14------ 47.7-----
2024-04-13 01:10 pmWNW 11 14------ 47.7-----
2024-04-13 01:00 pmWNW 13 14------ 47.5-----
2024-04-13 12:50 pmWNW 12 14------ 47.5-----
2024-04-13 12:40 pmWNW 12 15------ 47.3-----
2024-04-13 12:30 pmWNW 14 15------ 47.1-----
2024-04-13 12:20 pm W 14 16------ 47.1-----
2024-04-13 12:10 pm W 14 16------ 46.9-----
2024-04-13 12:00 pm W 15 17------ 46.8-----
2024-04-13 11:50 am W 15 17------ 46.6-----
2024-04-13 11:40 am W 14 16------ 46.4-----
2024-04-13 11:30 am W 14 15------ 46.2-----
2024-04-13 11:20 amWNW 12 14------ 46.2-----
2024-04-13 11:10 amWNW 13 15------ 45.9-----
2024-04-13 11:00 amWNW 14 17------ 45.9-----
2024-04-13 10:50 amWNW 13 16------ 45.9-----
2024-04-13 10:40 amWNW 14 19------ 45.9-----
2024-04-13 10:30 amWNW 16 18------ 45.7-----
2024-04-13 10:20 amWNW 15 17------ 45.7-----
2024-04-13 10:10 amWNW 16 18------ 45.7-----
2024-04-13 10:00 amWNW 16 19------ 45.5-----
2024-04-13 09:50 amWNW 15 18------ 45.5-----
2024-04-13 09:40 amWNW 16 18------ 45.7-----
2024-04-13 09:30 amWNW 15 18------ 45.5-----
2024-04-13 09:20 amWNW 16 19------ 45.7-----
2024-04-13 09:10 amWNW 16 20------ 45.7-----
2024-04-13 09:00 amWNW 18 20------ 45.9-----
2024-04-13 08:50 amWNW 17 20------ 45.9-----
2024-04-13 08:40 amWNW 14 19------ 45.9-----
2024-04-13 08:30 amWNW 16 19------ 45.9-----
2024-04-13 08:20 amWNW 16 18------ 45.9-----
2024-04-13 08:10 amWNW 16 19------ 45.9-----
2024-04-13 08:00 amWNW 17 19------ 45.9-----
2024-04-13 07:50 amWNW 16 19------ 45.9-----
2024-04-13 07:40 amWNW 17 19------ 45.9-----
2024-04-13 07:30 amWNW 16 19------ 45.9-----
2024-04-13 07:20 amWNW 16 19------ 45.9-----
2024-04-13 07:10 amWNW 15 19------ 45.9-----
2024-04-13 07:00 amWNW 17 19------ 46.0-----
2024-04-13 06:50 amWNW 15 19------ 45.9-----
2024-04-13 06:40 amWNW 15 17------ 45.9-----
2024-04-13 06:30 amWNW 15 18------ 45.9-----
2024-04-13 06:20 amWNW 16 18------ 46.2-----
2024-04-13 06:10 amWNW 16 20------ 46.2-----
2024-04-13 06:00 amWNW 15 20------ 46.2-----
2024-04-13 05:50 amWNW 16 18------ 46.2-----
2024-04-13 05:40 amWNW 16 19------ 46.2-----
2024-04-13 05:30 amWNW 16 19------ 46.2-----
2024-04-13 05:20 amWNW 17 18------ 46.6-----
2024-04-13 05:10 amWNW 16 18------ 46.6-----
2024-04-13 05:00 amWNW 15 18------ 46.6-----
2024-04-13 04:50 amWNW 16 19------ 46.6-----
2024-04-13 04:40 amWNW 16 18------ 46.9-----
2024-04-13 04:30 amWNW 13 18------ 46.6-----
2024-04-13 04:20 am NW 16 18------ 46.9-----
2024-04-13 04:10 amWNW 13 17------ 46.4-----
2024-04-13 04:00 am NW 16 20------ 46.8-----
2024-04-13 03:50 am NW 18 27------ 47.1-----
2024-04-13 03:40 am NW 21 25------ 47.5-----
2024-04-13 03:30 am NW 16 20------ 47.3-----
2024-04-13 03:20 am NW 17 20------ 47.7-----
2024-04-13 03:10 amWNW 12 15------ 47.5-----
2024-04-13 03:00 am NW 14 17------ 48.0-----
2024-04-13 02:50 amWNW 14 16------ 47.8-----